Terminal Aerodrome Forecast
Issued by NWS

Home | Current Version | Previous Version | Text Only | Print | Product List | Glossary On
Versions: 1 2 3 4 5 6 7 8 9 10 11 12 13 14 15 16 17 18 19 20 21 22 23 24 25
000
FTUS41 KPBZ 021720
TAFFKL
TAF
KFKL 021720Z 0218/0318 35005KT P6SM FEW045 BKN050
     FM030600 04003KT 4SM BR SCT250
     FM031400 04005KT P6SM SCT050 BKN250
      AMD LTD TO CLD VIS AND WIND=

USA.gov is the U.S. government's official web portal to all federal, state and local government web resources and services.